createdAt,value
2022-11-10T05:49:22.539Z,80.20
2022-11-10T05:52:07.966Z,89.63
2022-11-10T05:54:55.480Z,82.37
2022-11-10T05:57:48.773Z,89.87
2022-11-10T06:00:34.351Z,87.63
2022-11-10T06:03:20.364Z,88.90
2022-11-10T06:06:06.263Z,93.40
2022-11-10T06:08:52.042Z,90.97
2022-11-10T06:11:37.391Z,95.50
2022-11-10T06:14:23.031Z,92.10
2022-11-10T06:17:08.626Z,87.83
2022-11-10T06:19:54.047Z,87.93
2022-11-10T06:22:39.756Z,89.57
2022-11-10T06:25:24.983Z,90.00
2022-11-10T06:28:10.981Z,91.67
2022-11-10T06:30:58.720Z,88.37
2022-11-10T06:33:44.157Z,88.10
2022-11-10T06:36:29.691Z,90.00
2022-11-10T06:39:15.251Z,87.10
2022-11-10T06:42:00.792Z,89.33
2022-11-10T06:44:45.984Z,91.13
2022-11-10T06:47:31.982Z,95.50
2022-11-10T06:50:17.567Z,87.17
2022-11-10T06:53:02.997Z,84.63
2022-11-10T06:55:48.047Z,91.30
2022-11-10T06:58:33.717Z,92.07
2022-11-10T07:01:22.700Z,93.33
2022-11-10T07:04:24.070Z,87.50
2022-11-10T07:07:10.946Z,90.83
2022-11-10T07:09:57.372Z,86.47
2022-11-10T07:12:42.875Z,91.33
2022-11-10T07:15:28.438Z,91.40
2022-11-10T07:18:16.234Z,97.20
2022-11-10T07:21:05.962Z,90.27
2022-11-10T07:23:51.205Z,90.90
2022-11-10T07:26:36.533Z,90.20
2022-11-10T07:29:21.800Z,89.27
2022-11-10T07:32:07.235Z,88.87
2022-11-10T07:34:52.681Z,86.77
2022-11-10T07:37:38.237Z,85.77
2022-11-10T07:40:24.089Z,86.67
2022-11-10T07:43:09.724Z,85.40
2022-11-10T07:45:55.214Z,92.80
2022-11-10T07:48:40.560Z,89.70
2022-11-10T07:51:27.058Z,86.17
2022-11-10T07:54:12.799Z,87.13
2022-11-10T07:56:58.242Z,91.40
2022-11-10T07:59:43.573Z,85.60
2022-11-10T08:02:29.021Z,83.68
2022-11-10T08:05:14.505Z,79.43
2022-11-10T08:08:00.478Z,88.27
2022-11-10T08:10:45.802Z,80.20
2022-11-10T08:13:30.959Z,86.27
2022-11-10T08:16:16.428Z,83.27
2022-11-10T08:19:01.882Z,80.00
2022-11-10T08:21:47.399Z,84.97
2022-11-10T08:24:32.815Z,81.07
2022-11-10T08:27:18.034Z,86.13
2022-11-10T08:30:03.960Z,81.13
2022-11-10T08:32:49.461Z,76.37
2022-11-10T08:35:37.828Z,81.37
2022-11-10T08:38:24.367Z,76.60
2022-11-10T08:41:09.828Z,70.83
2022-11-10T08:43:55.127Z,75.63
2022-11-10T08:46:42.617Z,74.17
2022-11-10T08:49:28.155Z,75.50
2022-11-10T08:52:14.137Z,70.87
2022-11-10T08:54:59.768Z,71.50
2022-11-10T08:57:44.871Z,71.73
2022-11-10T09:00:32.600Z,70.57
2022-11-10T09:03:20.915Z,72.77
2022-11-10T09:06:06.559Z,72.73
2022-11-10T09:08:52.045Z,73.47
2022-11-10T09:11:37.455Z,71.13
2022-11-10T09:14:22.961Z,69.27
2022-11-10T09:17:08.474Z,75.43
2022-11-10T09:19:53.902Z,71.50
2022-11-10T09:22:39.995Z,70.43
2022-11-10T09:25:25.247Z,72.03
2022-11-10T09:28:14.577Z,68.40
2022-11-10T09:31:00.151Z,73.40
2022-11-10T09:33:45.282Z,68.77
2022-11-10T09:36:31.241Z,66.60
2022-11-10T09:39:16.678Z,68.20
2022-11-10T09:42:03.912Z,64.40
2022-11-10T09:44:56.404Z,67.43
2022-11-10T09:47:57.210Z,65.50
2022-11-10T09:51:04.260Z,65.70
2022-11-10T09:54:04.371Z,66.53
2022-11-10T09:56:53.439Z,66.47
2022-11-10T09:59:39.451Z,61.40
2022-11-10T10:02:37.469Z,66.97
2022-11-10T10:05:40.776Z,61.53
2022-11-10T10:08:38.877Z,65.67
2022-11-10T10:11:42.344Z,61.47
2022-11-10T10:15:04.631Z,65.07
2022-11-10T10:18:08.142Z,67.00
2022-11-10T10:21:24.343Z,67.27
2022-11-10T10:24:22.060Z,60.40
2022-11-10T10:27:12.395Z,58.23
2022-11-10T10:29:57.573Z,63.77
2022-11-10T10:32:43.108Z,57.03
2022-11-10T10:35:28.768Z,58.00
2022-11-10T10:38:31.224Z,56.13
2022-11-10T10:41:27.356Z,60.73
2022-11-10T10:44:18.537Z,52.60
2022-11-10T10:47:05.106Z,56.73
2022-11-10T10:49:50.431Z,49.30
2022-11-10T10:52:35.815Z,59.13
2022-11-10T10:55:20.896Z,51.40
2022-11-10T10:58:26.955Z,53.20
2022-11-10T11:01:15.948Z,53.73
2022-11-10T11:04:06.408Z,52.17
2022-11-10T11:07:03.898Z,56.23
2022-11-10T11:09:49.579Z,54.50
2022-11-10T11:12:34.990Z,50.77
2022-11-10T11:15:30.599Z,45.70
2022-11-10T11:18:18.055Z,53.80
2022-11-10T11:21:21.037Z,43.87
2022-11-10T11:24:31.234Z,49.27
2022-11-10T11:27:31.970Z,47.60
2022-11-10T11:30:22.116Z,49.63
2022-11-10T11:33:37.997Z,44.67
2022-11-10T11:36:32.331Z,49.50
2022-11-10T11:39:35.550Z,43.23
2022-11-10T11:42:43.541Z,44.67
2022-11-10T11:45:50.681Z,42.27
2022-11-10T11:49:07.179Z,42.00
2022-11-10T11:52:21.773Z,45.23
2022-11-10T11:55:28.358Z,40.17
2022-11-10T11:58:41.065Z,43.90
2022-11-10T12:01:35.632Z,41.63
2022-11-10T12:04:39.858Z,37.23
2022-11-10T12:07:35.642Z,36.43
2022-11-10T12:10:27.823Z,37.13
2022-11-10T12:13:16.457Z,40.33
2022-11-10T12:16:02.549Z,40.17
2022-11-10T12:18:53.885Z,35.43
2022-11-10T12:21:58.204Z,35.47
2022-11-10T12:25:01.449Z,32.73
2022-11-10T12:27:51.587Z,31.30
2022-11-10T12:30:38.465Z,35.53
2022-11-10T12:33:34.685Z,36.23
2022-11-10T12:36:22.276Z,34.97
2022-11-10T12:39:18.401Z,35.23
2022-11-10T12:42:05.541Z,34.43
2022-11-10T12:44:59.742Z,36.30
2022-11-10T12:47:46.335Z,32.75
2022-11-10T12:50:49.247Z,32.47
2022-11-10T12:53:37.537Z,34.58
2022-11-10T12:56:30.124Z,33.33
2022-11-10T12:59:16.064Z,36.50
2022-11-10T13:02:03.607Z,32.60
2022-11-10T13:05:09.326Z,33.63
2022-11-10T13:08:13.853Z,34.77
2022-11-10T13:11:04.730Z,31.70
2022-11-10T13:13:59.222Z,29.23
2022-11-10T13:16:45.756Z,30.20
2022-11-10T13:19:32.847Z,37.73
2022-11-10T13:22:40.834Z,30.27
2022-11-10T13:25:39.096Z,28.70
2022-11-10T13:28:43.637Z,30.23
2022-11-10T13:31:39.991Z,31.13
2022-11-10T13:34:30.161Z,31.23
2022-11-10T13:37:34.499Z,31.90
2022-11-10T13:40:27.018Z,31.63
2022-11-10T13:43:18.918Z,34.23
2022-11-10T13:46:05.905Z,30.10
2022-11-10T13:49:14.323Z,27.00
2022-11-10T13:52:19.388Z,32.50
2022-11-10T13:55:13.229Z,29.10
2022-11-10T13:58:07.454Z,31.93
2022-11-10T14:01:13.223Z,31.63
2022-11-10T14:04:01.970Z,32.83
2022-11-10T14:06:50.915Z,32.60
2022-11-10T14:09:41.469Z,30.67
2022-11-10T14:12:42.219Z,32.13
2022-11-10T14:15:36.387Z,30.33
2022-11-10T14:18:24.971Z,32.90
2022-11-10T14:21:13.063Z,29.73
2022-11-10T14:24:11.286Z,32.27
2022-11-10T14:27:05.291Z,26.92
2022-11-10T14:30:03.378Z,27.43
2022-11-10T14:33:09.254Z,28.90
2022-11-10T14:35:57.317Z,29.17
2022-11-10T14:38:46.289Z,31.60
2022-11-10T14:41:32.298Z,39.40
2022-11-10T14:44:23.571Z,33.20
2022-11-10T14:47:27.740Z,31.87
2022-11-10T14:50:21.714Z,31.23
2022-11-10T14:53:20.019Z,36.20
2022-11-10T14:56:07.428Z,30.47
2022-11-10T14:58:53.797Z,33.30
2022-11-10T15:01:42.279Z,35.23
2022-11-10T15:04:30.292Z,34.07
2022-11-10T15:07:17.266Z,38.20
2022-11-10T15:10:12.471Z,34.13
2022-11-10T15:12:59.088Z,33.93
2022-11-10T15:15:44.658Z,36.13
2022-11-10T15:18:30.802Z,34.53
2022-11-10T15:21:17.504Z,31.13
2022-11-10T15:24:05.690Z,31.63
2022-11-10T15:26:51.287Z,30.60
2022-11-10T15:29:37.979Z,34.67
2022-11-10T15:32:25.369Z,34.23
2022-11-10T15:35:11.310Z,35.43
2022-11-10T15:38:01.311Z,36.83
2022-11-10T15:40:48.414Z,31.17
2022-11-10T15:43:34.408Z,35.17
2022-11-10T15:46:25.034Z,38.80
2022-11-10T15:49:32.707Z,32.43
2022-11-10T15:52:20.413Z,35.10
2022-11-10T15:55:06.451Z,35.47
2022-11-10T15:57:52.353Z,30.17
2022-11-10T16:00:38.479Z,33.63
2022-11-10T16:03:24.382Z,32.17
2022-11-10T16:06:16.994Z,32.33
2022-11-10T16:09:02.671Z,31.80
2022-11-10T16:11:48.597Z,32.23
2022-11-10T16:14:34.466Z,39.73
2022-11-10T16:17:20.352Z,30.83
2022-11-10T16:20:14.157Z,31.67
2022-11-10T16:23:00.088Z,30.63
2022-11-10T16:25:47.441Z,40.70
2022-11-10T16:28:33.252Z,31.27
2022-11-10T16:31:20.133Z,43.20
2022-11-10T16:34:05.815Z,32.70
2022-11-10T16:36:51.750Z,36.23
2022-11-10T16:39:37.666Z,36.37
2022-11-10T16:42:23.665Z,38.10
2022-11-10T16:45:19.677Z,34.37
2022-11-10T16:48:07.620Z,33.63
2022-11-10T16:50:54.215Z,31.00
2022-11-10T16:53:40.104Z,30.93
2022-11-10T16:56:27.124Z,31.23
2022-11-10T16:59:13.632Z,39.43
2022-11-10T17:01:59.710Z,29.07
2022-11-10T17:04:45.510Z,38.97
2022-11-10T17:07:31.666Z,33.70
2022-11-10T17:10:18.457Z,32.03
2022-11-10T17:13:04.460Z,31.43
2022-11-10T17:15:51.246Z,33.53
2022-11-10T17:18:37.412Z,33.40
2022-11-10T17:21:26.229Z,36.40
2022-11-10T17:24:16.256Z,31.93
2022-11-10T17:27:02.178Z,34.50
2022-11-10T17:29:48.305Z,32.47
2022-11-10T17:33:03.118Z,34.87
2022-11-10T17:35:47.305Z,40.77
2022-11-10T17:38:33.926Z,48.70
2022-11-10T17:41:20.758Z,40.27
2022-11-10T17:44:06.735Z,38.03
2022-11-10T17:46:52.654Z,36.60
2022-11-10T17:49:38.631Z,40.77
2022-11-10T17:52:24.585Z,35.80
2022-11-10T17:55:20.961Z,36.20
2022-11-10T17:58:06.854Z,41.83
2022-11-10T18:00:52.706Z,41.23
2022-11-10T18:03:38.755Z,41.40
2022-11-10T18:06:24.557Z,42.27
2022-11-10T18:09:10.566Z,41.70
2022-11-10T18:11:56.346Z,40.80
2022-11-10T18:14:42.170Z,37.17
2022-11-10T18:17:28.061Z,38.67
2022-11-10T18:20:14.433Z,36.90
2022-11-10T18:23:00.577Z,41.23
2022-11-10T18:25:46.522Z,44.70
2022-11-10T18:28:32.801Z,41.73
2022-11-10T18:31:19.040Z,38.20
2022-11-10T18:34:05.923Z,41.80
2022-11-10T18:36:52.340Z,38.83
2022-11-10T18:39:38.406Z,44.27
2022-11-10T18:42:24.748Z,45.40
2022-11-10T18:45:11.280Z,36.93
2022-11-10T18:48:01.488Z,39.37
2022-11-10T18:50:47.535Z,38.37
2022-11-10T18:53:38.020Z,43.07
2022-11-10T18:56:24.104Z,43.77
2022-11-10T18:59:10.254Z,40.97
2022-11-10T19:01:55.912Z,42.63
2022-11-10T19:04:41.775Z,38.30
2022-11-10T19:07:27.845Z,39.77
2022-11-10T19:10:13.787Z,38.60
2022-11-10T19:12:59.873Z,34.97
2022-11-10T19:15:45.630Z,38.70
2022-11-10T19:18:31.576Z,39.07
2022-11-10T19:21:18.994Z,43.50
2022-11-10T19:24:04.733Z,46.23
2022-11-10T19:26:51.319Z,44.73
2022-11-10T19:29:37.379Z,44.10
2022-11-10T19:32:24.984Z,43.23
2022-11-10T19:35:13.378Z,43.17
2022-11-10T19:37:59.202Z,49.80
2022-11-10T19:40:45.268Z,36.73
2022-11-10T19:43:31.479Z,42.83
2022-11-10T19:46:18.449Z,39.83
2022-11-10T19:49:04.724Z,38.60
2022-11-10T19:51:50.862Z,40.50
2022-11-10T19:54:36.541Z,42.83
2022-11-10T19:57:23.224Z,44.00
2022-11-10T20:00:09.160Z,40.10
2022-11-10T20:02:54.938Z,37.97
2022-11-10T20:05:41.007Z,43.27
2022-11-10T20:08:27.057Z,40.20
2022-11-10T20:11:15.106Z,41.13
2022-11-10T20:14:00.889Z,39.97
2022-11-10T20:16:46.826Z,40.33
2022-11-10T20:19:40.934Z,45.67
2022-11-10T20:22:27.573Z,44.07
2022-11-10T20:25:13.510Z,44.67
2022-11-10T20:28:03.382Z,42.53
2022-11-10T20:30:49.403Z,41.13
2022-11-10T20:33:35.391Z,42.00
2022-11-10T20:36:23.323Z,44.07
2022-11-10T20:39:09.382Z,44.10
2022-11-10T20:41:55.413Z,42.93
2022-11-10T20:44:41.427Z,45.83
2022-11-10T20:47:28.698Z,45.43
2022-11-10T20:50:17.294Z,43.00
2022-11-10T20:53:05.883Z,43.80
2022-11-10T20:55:57.788Z,43.57
2022-11-10T20:58:45.149Z,44.87
2022-11-10T21:01:32.594Z,47.63
2022-11-10T21:04:18.617Z,38.40
2022-11-10T21:07:04.684Z,41.07
2022-11-10T21:09:50.543Z,44.40
2022-11-10T21:12:51.343Z,45.80
2022-11-10T21:15:40.608Z,45.77
2022-11-10T21:18:28.364Z,43.47
2022-11-10T21:21:21.989Z,47.33
2022-11-10T21:24:08.227Z,47.73
2022-11-10T21:26:53.775Z,43.27
2022-11-10T21:29:39.980Z,43.90
2022-11-10T21:32:25.801Z,42.20
2022-11-10T21:35:11.711Z,44.53
2022-11-10T21:37:57.672Z,42.20
2022-11-10T21:40:43.542Z,42.37
2022-11-10T21:43:29.733Z,45.60
2022-11-10T21:46:15.670Z,42.63
2022-11-10T21:49:08.472Z,43.17
2022-11-10T21:51:54.423Z,41.43
2022-11-10T21:54:40.374Z,41.13
2022-11-10T21:57:26.421Z,42.70
2022-11-10T22:00:13.344Z,38.30
2022-11-10T22:03:00.263Z,37.97
2022-11-10T22:05:46.318Z,38.97
2022-11-10T22:08:32.276Z,43.43
2022-11-10T22:11:41.251Z,45.57
2022-11-10T22:14:45.601Z,44.57
